sensor_id;sensor_type;location;lat;lon;timestamp;P1;durP1;ratioP1;P2;durP2;ratioP2
13321;SDS011;6730;46.248;6.930;2022-11-09T00:02:09;1.02;;;0.90;;
13321;SDS011;6730;46.248;6.930;2022-11-09T00:04:34;0.63;;;0.63;;
13321;SDS011;6730;46.248;6.930;2022-11-09T00:07:00;3.40;;;0.75;;
13321;SDS011;6730;46.248;6.930;2022-11-09T00:09:26;0.73;;;0.73;;
13321;SDS011;6730;46.248;6.930;2022-11-09T00:11:54;1.15;;;0.70;;
13321;SDS011;6730;46.248;6.930;2022-11-09T00:14:20;0.93;;;0.82;;
13321;SDS011;6730;46.248;6.930;2022-11-09T00:16:46;1.20;;;0.82;;
13321;SDS011;6730;46.248;6.930;2022-11-09T00:19:11;0.70;;;0.70;;
13321;SDS011;6730;46.248;6.930;2022-11-09T00:21:38;2.45;;;1.02;;
13321;SDS011;6730;46.248;6.930;2022-11-09T00:24:04;1.80;;;0.93;;
13321;SDS011;6730;46.248;6.930;2022-11-09T00:26:30;0.70;;;0.70;;
13321;SDS011;6730;46.248;6.930;2022-11-09T00:28:55;0.85;;;0.80;;
13321;SDS011;6730;46.248;6.930;2022-11-09T00:31:21;4.20;;;1.30;;
13321;SDS011;6730;46.248;6.930;2022-11-09T00:33:49;0.77;;;0.77;;
13321;SDS011;6730;46.248;6.930;2022-11-09T00:36:16;1.02;;;0.93;;
13321;SDS011;6730;46.248;6.930;2022-11-09T00:38:46;1.35;;;0.95;;
13321;SDS011;6730;46.248;6.930;2022-11-09T00:41:13;1.20;;;1.00;;
13321;SDS011;6730;46.248;6.930;2022-11-09T00:43:38;2.05;;;0.90;;
13321;SDS011;6730;46.248;6.930;2022-11-09T00:46:05;1.10;;;0.80;;
13321;SDS011;6730;46.248;6.930;2022-11-09T00:48:31;1.27;;;0.93;;
13321;SDS011;6730;46.248;6.930;2022-11-09T00:50:57;1.15;;;1.05;;
13321;SDS011;6730;46.248;6.930;2022-11-09T00:53:23;1.08;;;0.98;;
13321;SDS011;6730;46.248;6.930;2022-11-09T00:55:57;0.73;;;0.70;;
13321;SDS011;6730;46.248;6.930;2022-11-09T00:58:23;3.22;;;1.13;;
13321;SDS011;6730;46.248;6.930;2022-11-09T01:00:50;1.33;;;0.85;;
13321;SDS011;6730;46.248;6.930;2022-11-09T01:03:17;0.98;;;0.90;;
13321;SDS011;6730;46.248;6.930;2022-11-09T01:05:44;1.70;;;0.85;;
13321;SDS011;6730;46.248;6.930;2022-11-09T01:08:10;1.20;;;0.80;;
13321;SDS011;6730;46.248;6.930;2022-11-09T01:10:38;0.95;;;0.88;;
13321;SDS011;6730;46.248;6.930;2022-11-09T01:13:06;1.15;;;0.80;;
13321;SDS011;6730;46.248;6.930;2022-11-09T01:15:32;0.85;;;0.75;;
13321;SDS011;6730;46.248;6.930;2022-11-09T01:17:57;0.90;;;0.70;;
13321;SDS011;6730;46.248;6.930;2022-11-09T01:20:23;0.80;;;0.80;;
13321;SDS011;6730;46.248;6.930;2022-11-09T01:22:49;0.80;;;0.80;;
13321;SDS011;6730;46.248;6.930;2022-11-09T01:25:14;1.08;;;0.85;;
13321;SDS011;6730;46.248;6.930;2022-11-09T01:27:40;0.93;;;0.80;;
13321;SDS011;6730;46.248;6.930;2022-11-09T01:30:06;1.50;;;0.90;;
13321;SDS011;6730;46.248;6.930;2022-11-09T01:32:32;0.90;;;0.90;;
13321;SDS011;6730;46.248;6.930;2022-11-09T01:34:57;1.80;;;0.82;;
13321;SDS011;6730;46.248;6.930;2022-11-09T01:37:23;0.70;;;0.70;;
13321;SDS011;6730;46.248;6.930;2022-11-09T01:39:49;1.30;;;1.10;;
13321;SDS011;6730;46.248;6.930;2022-11-09T01:42:20;2.13;;;0.90;;
13321;SDS011;6730;46.248;6.930;2022-11-09T01:44:48;1.73;;;1.00;;
13321;SDS011;6730;46.248;6.930;2022-11-09T01:47:33;1.10;;;0.75;;
13321;SDS011;6730;46.248;6.930;2022-11-09T01:49:59;2.00;;;0.95;;
13321;SDS011;6730;46.248;6.930;2022-11-09T01:52:29;1.20;;;0.90;;
13321;SDS011;6730;46.248;6.930;2022-11-09T01:55:04;0.90;;;0.90;;
13321;SDS011;6730;46.248;6.930;2022-11-09T01:57:41;2.17;;;0.90;;
13321;SDS011;6730;46.248;6.930;2022-11-09T02:00:11;0.95;;;0.80;;
13321;SDS011;6730;46.248;6.930;2022-11-09T02:02:40;1.35;;;0.90;;
13321;SDS011;6730;46.248;6.930;2022-11-09T02:05:11;0.75;;;0.60;;
13321;SDS011;6730;46.248;6.930;2022-11-09T02:07:41;0.80;;;0.80;;
13321;SDS011;6730;46.248;6.930;2022-11-09T02:12:46;0.82;;;0.75;;
13321;SDS011;6730;46.248;6.930;2022-11-09T02:15:12;0.57;;;0.57;;
13321;SDS011;6730;46.248;6.930;2022-11-09T02:17:39;0.60;;;0.60;;
13321;SDS011;6730;46.248;6.930;2022-11-09T02:20:07;0.90;;;0.90;;
13321;SDS011;6730;46.248;6.930;2022-11-09T02:22:35;0.82;;;0.80;;
13321;SDS011;6730;46.248;6.930;2022-11-09T02:25:01;1.90;;;1.10;;
13321;SDS011;6730;46.248;6.930;2022-11-09T02:27:27;1.83;;;0.90;;
13321;SDS011;6730;46.248;6.930;2022-11-09T02:29:53;1.63;;;0.70;;
13321;SDS011;6730;46.248;6.930;2022-11-09T02:32:21;1.05;;;0.63;;
13321;SDS011;6730;46.248;6.930;2022-11-09T02:34:49;1.15;;;0.88;;
13321;SDS011;6730;46.248;6.930;2022-11-09T02:39:54;0.82;;;0.82;;
13321;SDS011;6730;46.248;6.930;2022-11-09T02:42:22;1.95;;;1.10;;
13321;SDS011;6730;46.248;6.930;2022-11-09T02:44:54;1.35;;;1.02;;
13321;SDS011;6730;46.248;6.930;2022-11-09T02:47:22;0.93;;;0.70;;
13321;SDS011;6730;46.248;6.930;2022-11-09T02:49:48;0.98;;;0.80;;
13321;SDS011;6730;46.248;6.930;2022-11-09T02:52:14;1.08;;;0.75;;
13321;SDS011;6730;46.248;6.930;2022-11-09T02:54:40;1.30;;;1.10;;
13321;SDS011;6730;46.248;6.930;2022-11-09T02:57:06;1.13;;;0.75;;
13321;SDS011;6730;46.248;6.930;2022-11-09T02:59:32;2.22;;;0.88;;
13321;SDS011;6730;46.248;6.930;2022-11-09T03:01:57;1.65;;;0.93;;
13321;SDS011;6730;46.248;6.930;2022-11-09T03:04:23;1.90;;;1.00;;
13321;SDS011;6730;46.248;6.930;2022-11-09T03:06:49;0.80;;;0.80;;
13321;SDS011;6730;46.248;6.930;2022-11-09T03:09:14;3.00;;;1.10;;
13321;SDS011;6730;46.248;6.930;2022-11-09T03:11:40;0.88;;;0.85;;
13321;SDS011;6730;46.248;6.930;2022-11-09T03:14:07;2.20;;;1.00;;
13321;SDS011;6730;46.248;6.930;2022-11-09T03:16:34;1.48;;;1.17;;
13321;SDS011;6730;46.248;6.930;2022-11-09T03:19:00;1.38;;;0.98;;
13321;SDS011;6730;46.248;6.930;2022-11-09T03:21:26;0.80;;;0.80;;
13321;SDS011;6730;46.248;6.930;2022-11-09T03:23:52;1.05;;;0.88;;
13321;SDS011;6730;46.248;6.930;2022-11-09T03:26:18;1.98;;;1.10;;
13321;SDS011;6730;46.248;6.930;2022-11-09T03:28:45;1.60;;;0.90;;
13321;SDS011;6730;46.248;6.930;2022-11-09T03:31:11;1.13;;;1.02;;
13321;SDS011;6730;46.248;6.930;2022-11-09T03:33:37;1.33;;;0.98;;
13321;SDS011;6730;46.248;6.930;2022-11-09T03:36:02;1.65;;;0.90;;
13321;SDS011;6730;46.248;6.930;2022-11-09T03:38:28;0.90;;;0.90;;
13321;SDS011;6730;46.248;6.930;2022-11-09T03:40:54;1.20;;;1.10;;
13321;SDS011;6730;46.248;6.930;2022-11-09T03:43:20;2.17;;;0.82;;
13321;SDS011;6730;46.248;6.930;2022-11-09T03:45:46;1.10;;;1.00;;
13321;SDS011;6730;46.248;6.930;2022-11-09T03:48:12;1.02;;;0.95;;
13321;SDS011;6730;46.248;6.930;2022-11-09T03:50:37;1.35;;;1.05;;
13321;SDS011;6730;46.248;6.930;2022-11-09T03:53:05;2.05;;;1.13;;
13321;SDS011;6730;46.248;6.930;2022-11-09T03:55:34;1.15;;;1.02;;
13321;SDS011;6730;46.248;6.930;2022-11-09T03:58:00;1.10;;;0.90;;
13321;SDS011;6730;46.248;6.930;2022-11-09T04:00:27;0.93;;;0.90;;
13321;SDS011;6730;46.248;6.930;2022-11-09T04:02:52;1.67;;;1.25;;
13321;SDS011;6730;46.248;6.930;2022-11-09T04:05:18;2.03;;;1.30;;
13321;SDS011;6730;46.248;6.930;2022-11-09T04:07:48;0.90;;;0.80;;
13321;SDS011;6730;46.248;6.930;2022-11-09T04:10:15;1.00;;;0.90;;
13321;SDS011;6730;46.248;6.930;2022-11-09T04:12:42;1.13;;;1.02;;
13321;SDS011;6730;46.248;6.930;2022-11-09T04:15:08;0.80;;;0.80;;
13321;SDS011;6730;46.248;6.930;2022-11-09T04:17:34;0.80;;;0.80;;
13321;SDS011;6730;46.248;6.930;2022-11-09T04:19:59;1.42;;;1.10;;
13321;SDS011;6730;46.248;6.930;2022-11-09T04:22:26;1.23;;;1.00;;
13321;SDS011;6730;46.248;6.930;2022-11-09T04:24:51;1.10;;;1.00;;
13321;SDS011;6730;46.248;6.930;2022-11-09T04:27:17;1.10;;;0.93;;
13321;SDS011;6730;46.248;6.930;2022-11-09T04:29:43;1.38;;;1.00;;
13321;SDS011;6730;46.248;6.930;2022-11-09T04:32:08;1.52;;;0.90;;
13321;SDS011;6730;46.248;6.930;2022-11-09T04:34:34;1.20;;;1.10;;
13321;SDS011;6730;46.248;6.930;2022-11-09T04:37:00;1.45;;;0.98;;
13321;SDS011;6730;46.248;6.930;2022-11-09T04:39:25;1.10;;;1.00;;
13321;SDS011;6730;46.248;6.930;2022-11-09T04:41:51;1.50;;;1.10;;
13321;SDS011;6730;46.248;6.930;2022-11-09T04:44:16;1.65;;;1.00;;
13321;SDS011;6730;46.248;6.930;2022-11-09T04:46:42;1.10;;;1.00;;
13321;SDS011;6730;46.248;6.930;2022-11-09T04:49:08;2.00;;;1.00;;
13321;SDS011;6730;46.248;6.930;2022-11-09T04:51:33;2.55;;;1.08;;
13321;SDS011;6730;46.248;6.930;2022-11-09T04:53:59;1.98;;;1.10;;
13321;SDS011;6730;46.248;6.930;2022-11-09T04:56:25;1.40;;;0.95;;
13321;SDS011;6730;46.248;6.930;2022-11-09T04:58:50;1.88;;;1.33;;
13321;SDS011;6730;46.248;6.930;2022-11-09T05:01:16;2.65;;;1.10;;
13321;SDS011;6730;46.248;6.930;2022-11-09T05:03:42;1.23;;;1.08;;
13321;SDS011;6730;46.248;6.930;2022-11-09T05:06:08;1.35;;;1.20;;
13321;SDS011;6730;46.248;6.930;2022-11-09T05:08:52;1.00;;;0.90;;
13321;SDS011;6730;46.248;6.930;2022-11-09T05:11:18;1.63;;;1.10;;
13321;SDS011;6730;46.248;6.930;2022-11-09T05:13:44;1.15;;;1.05;;
13321;SDS011;6730;46.248;6.930;2022-11-09T05:16:10;3.72;;;1.30;;
13321;SDS011;6730;46.248;6.930;2022-11-09T05:18:36;1.33;;;1.00;;
13321;SDS011;6730;46.248;6.930;2022-11-09T05:21:01;1.02;;;0.93;;
13321;SDS011;6730;46.248;6.930;2022-11-09T05:23:28;1.17;;;0.93;;
13321;SDS011;6730;46.248;6.930;2022-11-09T05:26:11;1.40;;;1.27;;
13321;SDS011;6730;46.248;6.930;2022-11-09T05:28:37;1.75;;;1.10;;
13321;SDS011;6730;46.248;6.930;2022-11-09T05:31:03;1.02;;;0.93;;
13321;SDS011;6730;46.248;6.930;2022-11-09T05:33:29;1.35;;;1.00;;
13321;SDS011;6730;46.248;6.930;2022-11-09T05:35:55;1.77;;;1.10;;
13321;SDS011;6730;46.248;6.930;2022-11-09T05:38:21;1.40;;;1.23;;
13321;SDS011;6730;46.248;6.930;2022-11-09T05:40:48;3.78;;;1.35;;
13321;SDS011;6730;46.248;6.930;2022-11-09T05:43:17;1.20;;;1.10;;
13321;SDS011;6730;46.248;6.930;2022-11-09T05:45:43;2.63;;;1.13;;
13321;SDS011;6730;46.248;6.930;2022-11-09T05:48:10;1.55;;;1.17;;
13321;SDS011;6730;46.248;6.930;2022-11-09T05:50:37;2.13;;;1.10;;
13321;SDS011;6730;46.248;6.930;2022-11-09T05:53:03;3.03;;;1.48;;
13321;SDS011;6730;46.248;6.930;2022-11-09T05:55:29;1.83;;;1.10;;
13321;SDS011;6730;46.248;6.930;2022-11-09T05:57:55;1.90;;;1.15;;
13321;SDS011;6730;46.248;6.930;2022-11-09T06:00:20;2.17;;;1.38;;
13321;SDS011;6730;46.248;6.930;2022-11-09T06:02:46;3.53;;;1.40;;
13321;SDS011;6730;46.248;6.930;2022-11-09T06:05:13;2.03;;;1.10;;
13321;SDS011;6730;46.248;6.930;2022-11-09T06:07:40;1.60;;;1.10;;
13321;SDS011;6730;46.248;6.930;2022-11-09T06:10:06;1.45;;;1.17;;
13321;SDS011;6730;46.248;6.930;2022-11-09T06:12:33;1.92;;;1.15;;
13321;SDS011;6730;46.248;6.930;2022-11-09T06:14:59;1.88;;;1.10;;
13321;SDS011;6730;46.248;6.930;2022-11-09T06:17:24;2.47;;;1.10;;
13321;SDS011;6730;46.248;6.930;2022-11-09T06:19:50;1.38;;;1.02;;
13321;SDS011;6730;46.248;6.930;2022-11-09T06:22:16;1.58;;;1.25;;
13321;SDS011;6730;46.248;6.930;2022-11-09T06:24:42;2.58;;;1.20;;
13321;SDS011;6730;46.248;6.930;2022-11-09T06:27:08;3.47;;;1.20;;
13321;SDS011;6730;46.248;6.930;2022-11-09T06:29:34;2.05;;;1.33;;
13321;SDS011;6730;46.248;6.930;2022-11-09T06:31:59;1.10;;;1.00;;
13321;SDS011;6730;46.248;6.930;2022-11-09T06:34:25;1.35;;;1.15;;
13321;SDS011;6730;46.248;6.930;2022-11-09T06:36:51;1.42;;;1.25;;
13321;SDS011;6730;46.248;6.930;2022-11-09T06:39:16;1.33;;;1.20;;
13321;SDS011;6730;46.248;6.930;2022-11-09T06:41:42;1.08;;;0.98;;
13321;SDS011;6730;46.248;6.930;2022-11-09T06:44:08;1.40;;;1.20;;
13321;SDS011;6730;46.248;6.930;2022-11-09T06:46:33;1.52;;;1.20;;
13321;SDS011;6730;46.248;6.930;2022-11-09T06:49:02;0.90;;;0.90;;
13321;SDS011;6730;46.248;6.930;2022-11-09T06:51:28;0.90;;;0.90;;
13321;SDS011;6730;46.248;6.930;2022-11-09T06:53:53;1.48;;;1.00;;
13321;SDS011;6730;46.248;6.930;2022-11-09T06:56:19;1.58;;;0.82;;
13321;SDS011;6730;46.248;6.930;2022-11-09T06:58:45;1.23;;;1.00;;
13321;SDS011;6730;46.248;6.930;2022-11-09T07:01:12;1.48;;;1.02;;
13321;SDS011;6730;46.248;6.930;2022-11-09T07:03:40;1.77;;;1.20;;
13321;SDS011;6730;46.248;6.930;2022-11-09T07:06:07;1.10;;;1.00;;
13321;SDS011;6730;46.248;6.930;2022-11-09T07:08:35;1.08;;;0.98;;
13321;SDS011;6730;46.248;6.930;2022-11-09T07:11:02;2.47;;;1.10;;
13321;SDS011;6730;46.248;6.930;2022-11-09T07:13:33;1.10;;;1.00;;
13321;SDS011;6730;46.248;6.930;2022-11-09T07:15:58;2.17;;;1.08;;
13321;SDS011;6730;46.248;6.930;2022-11-09T07:18:24;0.90;;;0.90;;
13321;SDS011;6730;46.248;6.930;2022-11-09T07:20:50;1.50;;;1.17;;
13321;SDS011;6730;46.248;6.930;2022-11-09T07:23:16;1.73;;;0.85;;
13321;SDS011;6730;46.248;6.930;2022-11-09T07:25:41;2.22;;;1.10;;
13321;SDS011;6730;46.248;6.930;2022-11-09T07:28:08;1.38;;;1.10;;
13321;SDS011;6730;46.248;6.930;2022-11-09T07:30:35;1.55;;;1.45;;
13321;SDS011;6730;46.248;6.930;2022-11-09T07:33:02;1.83;;;1.00;;
13321;SDS011;6730;46.248;6.930;2022-11-09T07:35:28;1.20;;;1.05;;
13321;SDS011;6730;46.248;6.930;2022-11-09T07:37:58;1.83;;;1.10;;
13321;SDS011;6730;46.248;6.930;2022-11-09T07:40:25;1.63;;;1.27;;
13321;SDS011;6730;46.248;6.930;2022-11-09T07:42:51;2.05;;;0.90;;
13321;SDS011;6730;46.248;6.930;2022-11-09T07:45:17;2.10;;;1.20;;
13321;SDS011;6730;46.248;6.930;2022-11-09T07:47:42;1.20;;;1.08;;
13321;SDS011;6730;46.248;6.930;2022-11-09T07:50:08;2.53;;;1.27;;
13321;SDS011;6730;46.248;6.930;2022-11-09T07:52:34;1.05;;;0.95;;
13321;SDS011;6730;46.248;6.930;2022-11-09T07:54:59;1.15;;;1.05;;
13321;SDS011;6730;46.248;6.930;2022-11-09T07:57:25;1.85;;;1.13;;
13321;SDS011;6730;46.248;6.930;2022-11-09T07:59:51;1.20;;;0.90;;
13321;SDS011;6730;46.248;6.930;2022-11-09T08:02:17;1.25;;;1.10;;
13321;SDS011;6730;46.248;6.930;2022-11-09T08:04:43;1.45;;;1.23;;
13321;SDS011;6730;46.248;6.930;2022-11-09T08:07:08;1.90;;;1.10;;
13321;SDS011;6730;46.248;6.930;2022-11-09T08:09:34;4.13;;;1.30;;
13321;SDS011;6730;46.248;6.930;2022-11-09T08:12:00;1.35;;;1.15;;
13321;SDS011;6730;46.248;6.930;2022-11-09T08:14:25;1.80;;;1.42;;
13321;SDS011;6730;46.248;6.930;2022-11-09T08:16:51;3.05;;;1.15;;
13321;SDS011;6730;46.248;6.930;2022-11-09T08:19:17;1.02;;;1.00;;
13321;SDS011;6730;46.248;6.930;2022-11-09T08:21:42;2.13;;;1.27;;
13321;SDS011;6730;46.248;6.930;2022-11-09T08:24:08;1.23;;;0.90;;
13321;SDS011;6730;46.248;6.930;2022-11-09T08:26:34;1.38;;;1.27;;
13321;SDS011;6730;46.248;6.930;2022-11-09T08:28:59;1.85;;;1.05;;
13321;SDS011;6730;46.248;6.930;2022-11-09T08:31:25;1.48;;;1.08;;
13321;SDS011;6730;46.248;6.930;2022-11-09T08:33:51;1.15;;;1.00;;
13321;SDS011;6730;46.248;6.930;2022-11-09T08:36:17;1.10;;;1.00;;
13321;SDS011;6730;46.248;6.930;2022-11-09T08:38:43;1.13;;;1.05;;
13321;SDS011;6730;46.248;6.930;2022-11-09T08:41:10;2.33;;;1.00;;
13321;SDS011;6730;46.248;6.930;2022-11-09T08:43:36;1.52;;;1.00;;
13321;SDS011;6730;46.248;6.930;2022-11-09T08:46:02;0.88;;;0.88;;
13321;SDS011;6730;46.248;6.930;2022-11-09T08:48:28;1.67;;;1.10;;
13321;SDS011;6730;46.248;6.930;2022-11-09T08:50:55;0.95;;;0.95;;
13321;SDS011;6730;46.248;6.930;2022-11-09T08:53:23;2.13;;;1.20;;
13321;SDS011;6730;46.248;6.930;2022-11-09T08:55:51;1.35;;;1.10;;
13321;SDS011;6730;46.248;6.930;2022-11-09T08:58:18;1.25;;;0.88;;
13321;SDS011;6730;46.248;6.930;2022-11-09T09:00:44;2.17;;;1.00;;
13321;SDS011;6730;46.248;6.930;2022-11-09T09:03:10;1.33;;;1.20;;
13321;SDS011;6730;46.248;6.930;2022-11-09T09:05:36;1.30;;;1.20;;
13321;SDS011;6730;46.248;6.930;2022-11-09T09:08:02;1.10;;;1.00;;
13321;SDS011;6730;46.248;6.930;2022-11-09T09:10:29;1.70;;;1.15;;
13321;SDS011;6730;46.248;6.930;2022-11-09T09:12:56;2.13;;;1.10;;
13321;SDS011;6730;46.248;6.930;2022-11-09T09:15:22;1.35;;;1.00;;
13321;SDS011;6730;46.248;6.930;2022-11-09T09:17:47;1.30;;;1.10;;
13321;SDS011;6730;46.248;6.930;2022-11-09T09:20:14;1.17;;;1.08;;
13321;SDS011;6730;46.248;6.930;2022-11-09T09:22:41;1.55;;;1.05;;
13321;SDS011;6730;46.248;6.930;2022-11-09T09:25:07;0.88;;;0.82;;
13321;SDS011;6730;46.248;6.930;2022-11-09T09:27:32;1.20;;;1.10;;
13321;SDS011;6730;46.248;6.930;2022-11-09T09:29:59;1.00;;;1.00;;
13321;SDS011;6730;46.248;6.930;2022-11-09T09:32:24;2.45;;;2.08;;
13321;SDS011;6730;46.248;6.930;2022-11-09T09:34:50;2.83;;;1.92;;
13321;SDS011;6730;46.248;6.930;2022-11-09T09:37:16;2.00;;;1.70;;
13321;SDS011;6730;46.248;6.930;2022-11-09T09:39:42;2.60;;;1.70;;
13321;SDS011;6730;46.248;6.930;2022-11-09T09:42:13;39.08;;;20.38;;
13321;SDS011;6730;46.248;6.930;2022-11-09T09:44:44;23.25;;;12.35;;
13321;SDS011;6730;46.248;6.930;2022-11-09T09:47:39;25.13;;;14.13;;
13321;SDS011;6730;46.248;6.930;2022-11-09T09:50:24;16.08;;;9.40;;
13321;SDS011;6730;46.248;6.930;2022-11-09T09:53:02;7.85;;;4.97;;
13321;SDS011;6730;46.248;6.930;2022-11-09T09:55:40;5.25;;;3.22;;
13321;SDS011;6730;46.248;6.930;2022-11-09T10:00:44;2.67;;;2.05;;
13321;SDS011;6730;46.248;6.930;2022-11-09T10:03:19;3.78;;;2.05;;
13321;SDS011;6730;46.248;6.930;2022-11-09T10:05:48;3.75;;;2.15;;
13321;SDS011;6730;46.248;6.930;2022-11-09T10:13:47;1.67;;;1.40;;
13321;SDS011;6730;46.248;6.930;2022-11-09T10:16:49;1.90;;;1.65;;
13321;SDS011;6730;46.248;6.930;2022-11-09T10:22:21;4.18;;;2.60;;
13321;SDS011;6730;46.248;6.930;2022-11-09T10:25:00;3.33;;;1.63;;
13321;SDS011;6730;46.248;6.930;2022-11-09T10:27:34;2.08;;;1.52;;
13321;SDS011;6730;46.248;6.930;2022-11-09T10:30:12;2.03;;;1.50;;
13321;SDS011;6730;46.248;6.930;2022-11-09T10:32:40;2.03;;;1.50;;
13321;SDS011;6730;46.248;6.930;2022-11-09T10:35:16;2.90;;;1.30;;
13321;SDS011;6730;46.248;6.930;2022-11-09T10:37:48;1.67;;;1.35;;
13321;SDS011;6730;46.248;6.930;2022-11-09T10:43:00;4.30;;;3.25;;
13321;SDS011;6730;46.248;6.930;2022-11-09T10:45:32;2.90;;;1.92;;
13321;SDS011;6730;46.248;6.930;2022-11-09T10:47:59;2.83;;;1.83;;
13321;SDS011;6730;46.248;6.930;2022-11-09T10:50:40;2.00;;;1.80;;
13321;SDS011;6730;46.248;6.930;2022-11-09T10:53:14;1.95;;;1.55;;
13321;SDS011;6730;46.248;6.930;2022-11-09T10:58:27;1.85;;;1.70;;
13321;SDS011;6730;46.248;6.930;2022-11-09T11:00:57;4.13;;;2.80;;
13321;SDS011;6730;46.248;6.930;2022-11-09T11:03:25;6.00;;;2.05;;
13321;SDS011;6730;46.248;6.930;2022-11-09T11:08:28;2.10;;;1.80;;
13321;SDS011;6730;46.248;6.930;2022-11-09T11:11:07;1.80;;;1.50;;
13321;SDS011;6730;46.248;6.930;2022-11-09T11:13:39;5.00;;;1.60;;
13321;SDS011;6730;46.248;6.930;2022-11-09T11:19:01;4.68;;;2.70;;
13321;SDS011;6730;46.248;6.930;2022-11-09T11:21:28;3.30;;;2.65;;
13321;SDS011;6730;46.248;6.930;2022-11-09T11:24:10;4.15;;;3.00;;
13321;SDS011;6730;46.248;6.930;2022-11-09T11:26:52;1.80;;;1.70;;
13321;SDS011;6730;46.248;6.930;2022-11-09T11:29:30;2.47;;;1.98;;
13321;SDS011;6730;46.248;6.930;2022-11-09T11:32:12;2.45;;;1.85;;
13321;SDS011;6730;46.248;6.930;2022-11-09T11:34:39;1.58;;;1.30;;
13321;SDS011;6730;46.248;6.930;2022-11-09T12:10:16;3.25;;;2.92;;
13321;SDS011;6730;46.248;6.930;2022-11-09T12:13:08;2.40;;;2.20;;
13321;SDS011;6730;46.248;6.930;2022-11-09T12:20:43;2.28;;;1.83;;
13321;SDS011;6730;46.248;6.930;2022-11-09T12:29:02;1.92;;;1.65;;
13321;SDS011;6730;46.248;6.930;2022-11-09T12:34:17;2.45;;;1.90;;
13321;SDS011;6730;46.248;6.930;2022-11-09T12:37:13;2.90;;;1.90;;
13321;SDS011;6730;46.248;6.930;2022-11-09T12:39:45;1.92;;;1.60;;
13321;SDS011;6730;46.248;6.930;2022-11-09T12:42:35;2.58;;;2.35;;
13321;SDS011;6730;46.248;6.930;2022-11-09T12:45:12;1.95;;;1.77;;
13321;SDS011;6730;46.248;6.930;2022-11-09T12:48:14;2.10;;;1.90;;
13321;SDS011;6730;46.248;6.930;2022-11-09T12:50:40;1.70;;;1.52;;
13321;SDS011;6730;46.248;6.930;2022-11-09T12:53:06;2.80;;;1.40;;
13321;SDS011;6730;46.248;6.930;2022-11-09T12:55:37;1.35;;;1.25;;
13321;SDS011;6730;46.248;6.930;2022-11-09T12:58:10;5.80;;;5.10;;
13321;SDS011;6730;46.248;6.930;2022-11-09T13:00:57;1.17;;;1.08;;
13321;SDS011;6730;46.248;6.930;2022-11-09T13:06:36;2.17;;;1.58;;
13321;SDS011;6730;46.248;6.930;2022-11-09T13:09:06;2.03;;;1.40;;
13321;SDS011;6730;46.248;6.930;2022-11-09T13:11:48;2.13;;;1.40;;
13321;SDS011;6730;46.248;6.930;2022-11-09T13:16:50;3.10;;;2.78;;
13321;SDS011;6730;46.248;6.930;2022-11-09T13:22:01;3.30;;;3.00;;
13321;SDS011;6730;46.248;6.930;2022-11-09T13:33:20;2.22;;;2.03;;
13321;SDS011;6730;46.248;6.930;2022-11-09T13:38:13;5.05;;;3.03;;
13321;SDS011;6730;46.248;6.930;2022-11-09T13:45:54;2.60;;;2.40;;
13321;SDS011;6730;46.248;6.930;2022-11-09T13:48:35;5.93;;;2.65;;
13321;SDS011;6730;46.248;6.930;2022-11-09T13:58:47;6.68;;;4.03;;
13321;SDS011;6730;46.248;6.930;2022-11-09T14:01:24;6.18;;;3.83;;
13321;SDS011;6730;46.248;6.930;2022-11-09T14:03:55;4.47;;;3.67;;
13321;SDS011;6730;46.248;6.930;2022-11-09T14:06:22;3.55;;;2.95;;
13321;SDS011;6730;46.248;6.930;2022-11-09T14:08:48;3.45;;;3.15;;
13321;SDS011;6730;46.248;6.930;2022-11-09T14:26:59;14.68;;;4.35;;
13321;SDS011;6730;46.248;6.930;2022-11-09T14:29:48;6.25;;;4.38;;
13321;SDS011;6730;46.248;6.930;2022-11-09T14:32:22;3.15;;;2.80;;
13321;SDS011;6730;46.248;6.930;2022-11-09T14:35:09;3.90;;;3.50;;
13321;SDS011;6730;46.248;6.930;2022-11-09T14:37:46;5.07;;;3.88;;
13321;SDS011;6730;46.248;6.930;2022-11-09T14:42:55;48.08;;;8.75;;
13321;SDS011;6730;46.248;6.930;2022-11-09T14:45:26;27.30;;;5.47;;
13321;SDS011;6730;46.248;6.930;2022-11-09T14:47:54;6.50;;;4.40;;
13321;SDS011;6730;46.248;6.930;2022-11-09T14:50:23;4.82;;;3.63;;
13321;SDS011;6730;46.248;6.930;2022-11-09T14:52:51;3.42;;;2.92;;
13321;SDS011;6730;46.248;6.930;2022-11-09T14:55:19;3.03;;;2.67;;
13321;SDS011;6730;46.248;6.930;2022-11-09T14:57:46;3.33;;;3.03;;
13321;SDS011;6730;46.248;6.930;2022-11-09T15:00:34;5.03;;;3.15;;
13321;SDS011;6730;46.248;6.930;2022-11-09T15:03:18;3.72;;;2.85;;
13321;SDS011;6730;46.248;6.930;2022-11-09T15:06:04;5.18;;;4.53;;
13321;SDS011;6730;46.248;6.930;2022-11-09T15:08:32;4.45;;;3.13;;
13321;SDS011;6730;46.248;6.930;2022-11-09T15:11:00;3.65;;;2.83;;
13321;SDS011;6730;46.248;6.930;2022-11-09T15:13:28;4.35;;;3.00;;
13321;SDS011;6730;46.248;6.930;2022-11-09T15:15:56;2.72;;;2.42;;
13321;SDS011;6730;46.248;6.930;2022-11-09T15:18:29;2.90;;;2.63;;
13321;SDS011;6730;46.248;6.930;2022-11-09T15:21:14;4.32;;;2.50;;
13321;SDS011;6730;46.248;6.930;2022-11-09T15:23:49;2.50;;;2.13;;
13321;SDS011;6730;46.248;6.930;2022-11-09T15:26:39;2.35;;;2.03;;
13321;SDS011;6730;46.248;6.930;2022-11-09T15:31:59;2.97;;;1.70;;
13321;SDS011;6730;46.248;6.930;2022-11-09T15:39:46;4.28;;;3.45;;
13321;SDS011;6730;46.248;6.930;2022-11-09T15:42:12;2.65;;;2.05;;
13321;SDS011;6730;46.248;6.930;2022-11-09T15:44:38;3.08;;;1.80;;
13321;SDS011;6730;46.248;6.930;2022-11-09T15:47:12;2.28;;;1.80;;
13321;SDS011;6730;46.248;6.930;2022-11-09T15:49:45;2.08;;;1.85;;
13321;SDS011;6730;46.248;6.930;2022-11-09T15:52:10;2.20;;;1.70;;
13321;SDS011;6730;46.248;6.930;2022-11-09T15:54:36;2.55;;;1.88;;
13321;SDS011;6730;46.248;6.930;2022-11-09T15:57:02;1.90;;;1.70;;
13321;SDS011;6730;46.248;6.930;2022-11-09T15:59:28;4.65;;;3.40;;
13321;SDS011;6730;46.248;6.930;2022-11-09T16:01:54;3.20;;;2.47;;
13321;SDS011;6730;46.248;6.930;2022-11-09T16:04:20;2.85;;;2.28;;
13321;SDS011;6730;46.248;6.930;2022-11-09T16:06:46;3.40;;;2.45;;
13321;SDS011;6730;46.248;6.930;2022-11-09T16:09:11;3.40;;;2.80;;
13321;SDS011;6730;46.248;6.930;2022-11-09T16:11:37;9.50;;;7.13;;
13321;SDS011;6730;46.248;6.930;2022-11-09T16:14:03;5.63;;;3.15;;
13321;SDS011;6730;46.248;6.930;2022-11-09T16:16:29;2.95;;;2.65;;
13321;SDS011;6730;46.248;6.930;2022-11-09T16:18:55;3.65;;;2.80;;
13321;SDS011;6730;46.248;6.930;2022-11-09T16:21:21;4.13;;;3.72;;
13321;SDS011;6730;46.248;6.930;2022-11-09T16:23:47;3.80;;;2.63;;
13321;SDS011;6730;46.248;6.930;2022-11-09T16:26:14;5.10;;;4.38;;
13321;SDS011;6730;46.248;6.930;2022-11-09T16:28:41;5.88;;;5.10;;
13321;SDS011;6730;46.248;6.930;2022-11-09T16:31:08;7.28;;;6.28;;
13321;SDS011;6730;46.248;6.930;2022-11-09T16:33:38;9.13;;;7.00;;
13321;SDS011;6730;46.248;6.930;2022-11-09T16:36:07;4.35;;;3.95;;
13321;SDS011;6730;46.248;6.930;2022-11-09T16:38:41;5.53;;;3.60;;
13321;SDS011;6730;46.248;6.930;2022-11-09T16:41:08;3.67;;;3.00;;
13321;SDS011;6730;46.248;6.930;2022-11-09T16:43:38;3.80;;;3.47;;
13321;SDS011;6730;46.248;6.930;2022-11-09T16:46:05;4.80;;;4.00;;
13321;SDS011;6730;46.248;6.930;2022-11-09T16:48:31;3.42;;;3.13;;
13321;SDS011;6730;46.248;6.930;2022-11-09T16:50:58;2.50;;;2.30;;
13321;SDS011;6730;46.248;6.930;2022-11-09T16:53:24;2.28;;;2.08;;
13321;SDS011;6730;46.248;6.930;2022-11-09T16:55:49;2.10;;;1.90;;
13321;SDS011;6730;46.248;6.930;2022-11-09T16:58:15;2.10;;;1.63;;
13321;SDS011;6730;46.248;6.930;2022-11-09T17:00:44;2.08;;;1.45;;
13321;SDS011;6730;46.248;6.930;2022-11-09T17:03:12;2.25;;;1.38;;
13321;SDS011;6730;46.248;6.930;2022-11-09T17:05:38;1.65;;;1.50;;
13321;SDS011;6730;46.248;6.930;2022-11-09T17:08:05;1.35;;;1.25;;
13321;SDS011;6730;46.248;6.930;2022-11-09T17:10:31;1.50;;;1.40;;
13321;SDS011;6730;46.248;6.930;2022-11-09T17:12:57;1.58;;;1.45;;
13321;SDS011;6730;46.248;6.930;2022-11-09T17:15:23;1.88;;;1.40;;
13321;SDS011;6730;46.248;6.930;2022-11-09T17:17:49;2.58;;;1.80;;
13321;SDS011;6730;46.248;6.930;2022-11-09T17:20:15;2.00;;;1.88;;
13321;SDS011;6730;46.248;6.930;2022-11-09T17:22:41;2.53;;;2.17;;